sensor_id;sensor_type;location;lat;lon;timestamp;temperature;humidity
9949;DHT22;5013;51.840;8.276;2023-03-13T00:01:42;9.30;99.90
9949;DHT22;5013;51.840;8.276;2023-03-13T00:04:09;9.30;99.90
9949;DHT22;5013;51.840;8.276;2023-03-13T00:06:36;9.30;1.00
9949;DHT22;5013;51.840;8.276;2023-03-13T00:09:07;9.30;99.90
9949;DHT22;5013;51.840;8.276;2023-03-13T00:11:33;9.30;99.90
9949;DHT22;5013;51.840;8.276;2023-03-13T00:14:01;9.30;99.90
9949;DHT22;5013;51.840;8.276;2023-03-13T00:16:27;9.30;99.90
9949;DHT22;5013;51.840;8.276;2023-03-13T00:18:54;9.30;99.90
9949;DHT22;5013;51.840;8.276;2023-03-13T00:21:22;9.30;99.90
9949;DHT22;5013;51.840;8.276;2023-03-13T00:23:48;9.30;99.90
9949;DHT22;5013;51.840;8.276;2023-03-13T00:26:17;9.20;99.90
9949;DHT22;5013;51.840;8.276;2023-03-13T00:28:43;9.20;99.90
9949;DHT22;5013;51.840;8.276;2023-03-13T00:31:13;9.30;99.90
9949;DHT22;5013;51.840;8.276;2023-03-13T00:33:43;9.30;99.90
9949;DHT22;5013;51.840;8.276;2023-03-13T00:36:21;9.30;99.90
9949;DHT22;5013;51.840;8.276;2023-03-13T00:38:47;9.30;99.90
9949;DHT22;5013;51.840;8.276;2023-03-13T00:41:18;9.30;99.90
9949;DHT22;5013;51.840;8.276;2023-03-13T00:43:45;9.30;99.90
9949;DHT22;5013;51.840;8.276;2023-03-13T00:46:13;9.20;99.90
9949;DHT22;5013;51.840;8.276;2023-03-13T00:48:39;9.20;99.90
9949;DHT22;5013;51.840;8.276;2023-03-13T00:51:06;9.20;99.90
9949;DHT22;5013;51.840;8.276;2023-03-13T00:53:32;9.20;99.90
9949;DHT22;5013;51.840;8.276;2023-03-13T00:56:09;9.20;99.90
9949;DHT22;5013;51.840;8.276;2023-03-13T00:58:37;9.20;99.90
9949;DHT22;5013;51.840;8.276;2023-03-13T01:01:14;9.20;1.00
9949;DHT22;5013;51.840;8.276;2023-03-13T01:03:42;9.30;1.00
9949;DHT22;5013;51.840;8.276;2023-03-13T01:06:11;9.30;1.00
9949;DHT22;5013;51.840;8.276;2023-03-13T01:08:37;9.30;1.00
9949;DHT22;5013;51.840;8.276;2023-03-13T01:11:05;9.30;1.00
9949;DHT22;5013;51.840;8.276;2023-03-13T01:13:32;9.30;1.00
9949;DHT22;5013;51.840;8.276;2023-03-13T01:16:12;9.30;1.00
9949;DHT22;5013;51.840;8.276;2023-03-13T01:18:40;9.40;1.00
9949;DHT22;5013;51.840;8.276;2023-03-13T01:21:06;9.40;5.60
9949;DHT22;5013;51.840;8.276;2023-03-13T01:23:32;9.40;1.00
9949;DHT22;5013;51.840;8.276;2023-03-13T01:25:58;9.40;90.80
9949;DHT22;5013;51.840;8.276;2023-03-13T01:28:24;9.50;99.90
9949;DHT22;5013;51.840;8.276;2023-03-13T01:30:51;9.50;67.90
9949;DHT22;5013;51.840;8.276;2023-03-13T01:33:16;9.50;99.90
9949;DHT22;5013;51.840;8.276;2023-03-13T01:35:42;9.50;1.00
9949;DHT22;5013;51.840;8.276;2023-03-13T01:38:08;9.50;1.00
9949;DHT22;5013;51.840;8.276;2023-03-13T01:40:47;9.50;99.90
9949;DHT22;5013;51.840;8.276;2023-03-13T01:43:24;9.50;99.90
9949;DHT22;5013;51.840;8.276;2023-03-13T01:48:42;9.40;1.00
9949;DHT22;5013;51.840;8.276;2023-03-13T01:56:29;9.40;96.10
9949;DHT22;5013;51.840;8.276;2023-03-13T01:58:57;9.40;99.90
9949;DHT22;5013;51.840;8.276;2023-03-13T02:01:24;9.30;99.90
9949;DHT22;5013;51.840;8.276;2023-03-13T02:03:51;9.40;99.90
9949;DHT22;5013;51.840;8.276;2023-03-13T02:06:17;9.30;99.90
9949;DHT22;5013;51.840;8.276;2023-03-13T02:08:52;9.30;99.90
9949;DHT22;5013;51.840;8.276;2023-03-13T02:11:34;9.30;1.00
9949;DHT22;5013;51.840;8.276;2023-03-13T02:14:03;9.20;1.00
9949;DHT22;5013;51.840;8.276;2023-03-13T02:16:31;9.20;1.00
9949;DHT22;5013;51.840;8.276;2023-03-13T02:18:57;9.20;1.00
9949;DHT22;5013;51.840;8.276;2023-03-13T02:21:40;9.20;1.00
9949;DHT22;5013;51.840;8.276;2023-03-13T02:24:09;9.20;1.00
9949;DHT22;5013;51.840;8.276;2023-03-13T02:26:36;9.20;1.00
9949;DHT22;5013;51.840;8.276;2023-03-13T02:29:01;9.20;1.00
9949;DHT22;5013;51.840;8.276;2023-03-13T02:31:27;9.20;1.00
9949;DHT22;5013;51.840;8.276;2023-03-13T02:33:55;9.20;1.00
9949;DHT22;5013;51.840;8.276;2023-03-13T02:36:23;9.20;1.00
9949;DHT22;5013;51.840;8.276;2023-03-13T02:38:56;9.20;1.00
9949;DHT22;5013;51.840;8.276;2023-03-13T02:41:24;9.20;1.00
9949;DHT22;5013;51.840;8.276;2023-03-13T02:43:51;9.20;1.00
9949;DHT22;5013;51.840;8.276;2023-03-13T02:46:19;9.20;1.00
9949;DHT22;5013;51.840;8.276;2023-03-13T02:48:50;9.20;1.00
9949;DHT22;5013;51.840;8.276;2023-03-13T02:51:19;9.20;1.00
9949;DHT22;5013;51.840;8.276;2023-03-13T02:53:48;9.20;1.00
9949;DHT22;5013;51.840;8.276;2023-03-13T02:56:16;9.20;1.00
9949;DHT22;5013;51.840;8.276;2023-03-13T02:58:43;9.30;1.00
9949;DHT22;5013;51.840;8.276;2023-03-13T03:01:09;9.20;1.00
9949;DHT22;5013;51.840;8.276;2023-03-13T03:03:35;9.30;60.90
9949;DHT22;5013;51.840;8.276;2023-03-13T03:06:02;9.20;97.00
9949;DHT22;5013;51.840;8.276;2023-03-13T03:08:28;9.20;92.40
9949;DHT22;5013;51.840;8.276;2023-03-13T03:10:54;9.20;99.90
9949;DHT22;5013;51.840;8.276;2023-03-13T03:13:20;9.20;99.90
9949;DHT22;5013;51.840;8.276;2023-03-13T03:15:45;9.10;99.90
9949;DHT22;5013;51.840;8.276;2023-03-13T03:18:11;9.20;99.90
9949;DHT22;5013;51.840;8.276;2023-03-13T03:20:36;9.20;99.90
9949;DHT22;5013;51.840;8.276;2023-03-13T03:23:02;9.20;99.90
9949;DHT22;5013;51.840;8.276;2023-03-13T03:25:28;9.20;99.90
9949;DHT22;5013;51.840;8.276;2023-03-13T03:27:53;9.30;99.90
9949;DHT22;5013;51.840;8.276;2023-03-13T03:30:19;9.30;99.90
9949;DHT22;5013;51.840;8.276;2023-03-13T03:32:44;9.30;99.90
9949;DHT22;5013;51.840;8.276;2023-03-13T03:35:10;9.30;99.90
9949;DHT22;5013;51.840;8.276;2023-03-13T03:37:36;9.30;99.90
9949;DHT22;5013;51.840;8.276;2023-03-13T03:40:01;9.30;99.90
9949;DHT22;5013;51.840;8.276;2023-03-13T03:42:29;9.40;99.90
9949;DHT22;5013;51.840;8.276;2023-03-13T03:44:55;9.40;99.90
9949;DHT22;5013;51.840;8.276;2023-03-13T03:47:21;9.40;99.90
9949;DHT22;5013;51.840;8.276;2023-03-13T03:49:46;9.40;99.90
9949;DHT22;5013;51.840;8.276;2023-03-13T03:52:12;9.40;99.90
9949;DHT22;5013;51.840;8.276;2023-03-13T03:54:37;9.40;99.90
9949;DHT22;5013;51.840;8.276;2023-03-13T03:57:03;9.40;99.90
9949;DHT22;5013;51.840;8.276;2023-03-13T03:59:28;9.40;99.90
9949;DHT22;5013;51.840;8.276;2023-03-13T04:01:54;9.40;99.90
9949;DHT22;5013;51.840;8.276;2023-03-13T04:04:20;9.40;99.90
9949;DHT22;5013;51.840;8.276;2023-03-13T04:06:45;9.40;99.90
9949;DHT22;5013;51.840;8.276;2023-03-13T04:09:11;9.50;99.90
9949;DHT22;5013;51.840;8.276;2023-03-13T04:11:36;9.50;99.90
9949;DHT22;5013;51.840;8.276;2023-03-13T04:14:02;9.50;99.90
9949;DHT22;5013;51.840;8.276;2023-03-13T04:16:27;9.50;99.90
9949;DHT22;5013;51.840;8.276;2023-03-13T04:18:53;9.50;99.90
9949;DHT22;5013;51.840;8.276;2023-03-13T04:21:19;9.50;99.90
9949;DHT22;5013;51.840;8.276;2023-03-13T04:23:44;9.60;99.90
9949;DHT22;5013;51.840;8.276;2023-03-13T04:26:10;9.60;99.90
9949;DHT22;5013;51.840;8.276;2023-03-13T04:28:35;9.60;99.90
9949;DHT22;5013;51.840;8.276;2023-03-13T04:31:01;9.60;99.90
9949;DHT22;5013;51.840;8.276;2023-03-13T04:33:27;9.60;99.90
9949;DHT22;5013;51.840;8.276;2023-03-13T04:35:53;9.60;99.90
9949;DHT22;5013;51.840;8.276;2023-03-13T04:38:19;9.70;99.90
9949;DHT22;5013;51.840;8.276;2023-03-13T04:40:45;9.70;99.90
9949;DHT22;5013;51.840;8.276;2023-03-13T04:43:11;9.70;99.90
9949;DHT22;5013;51.840;8.276;2023-03-13T04:45:36;9.80;99.90
9949;DHT22;5013;51.840;8.276;2023-03-13T04:48:02;9.80;99.90
9949;DHT22;5013;51.840;8.276;2023-03-13T04:50:28;9.80;99.90
9949;DHT22;5013;51.840;8.276;2023-03-13T04:52:53;9.90;99.90
9949;DHT22;5013;51.840;8.276;2023-03-13T04:55:19;9.90;99.90
9949;DHT22;5013;51.840;8.276;2023-03-13T04:57:44;10.00;99.90
9949;DHT22;5013;51.840;8.276;2023-03-13T05:00:10;10.00;99.90
9949;DHT22;5013;51.840;8.276;2023-03-13T05:02:36;10.10;99.90
9949;DHT22;5013;51.840;8.276;2023-03-13T05:05:02;10.10;99.90
9949;DHT22;5013;51.840;8.276;2023-03-13T05:07:27;10.20;99.90
9949;DHT22;5013;51.840;8.276;2023-03-13T05:09:53;10.20;99.90
9949;DHT22;5013;51.840;8.276;2023-03-13T05:12:18;10.20;99.90
9949;DHT22;5013;51.840;8.276;2023-03-13T05:14:44;10.30;99.90
9949;DHT22;5013;51.840;8.276;2023-03-13T05:17:09;10.30;99.90
9949;DHT22;5013;51.840;8.276;2023-03-13T05:19:36;10.50;99.90
9949;DHT22;5013;51.840;8.276;2023-03-13T05:22:03;10.50;99.90
9949;DHT22;5013;51.840;8.276;2023-03-13T05:24:28;10.50;99.90
9949;DHT22;5013;51.840;8.276;2023-03-13T05:26:54;10.60;99.90
9949;DHT22;5013;51.840;8.276;2023-03-13T05:29:19;10.70;99.90
9949;DHT22;5013;51.840;8.276;2023-03-13T05:31:45;10.70;99.90
9949;DHT22;5013;51.840;8.276;2023-03-13T05:34:11;10.80;99.90
9949;DHT22;5013;51.840;8.276;2023-03-13T05:36:36;10.80;99.90
9949;DHT22;5013;51.840;8.276;2023-03-13T05:39:03;10.80;99.90
9949;DHT22;5013;51.840;8.276;2023-03-13T05:41:28;10.80;99.90
9949;DHT22;5013;51.840;8.276;2023-03-13T05:43:54;10.90;99.90
9949;DHT22;5013;51.840;8.276;2023-03-13T05:46:19;10.90;99.90
9949;DHT22;5013;51.840;8.276;2023-03-13T05:48:45;10.90;99.90
9949;DHT22;5013;51.840;8.276;2023-03-13T05:51:11;10.90;99.90
9949;DHT22;5013;51.840;8.276;2023-03-13T05:53:37;10.90;99.90
9949;DHT22;5013;51.840;8.276;2023-03-13T05:56:02;10.90;99.90
9949;DHT22;5013;51.840;8.276;2023-03-13T05:58:28;10.90;99.90
9949;DHT22;5013;51.840;8.276;2023-03-13T06:00:54;10.90;99.90
9949;DHT22;5013;51.840;8.276;2023-03-13T06:03:19;10.90;99.90
9949;DHT22;5013;51.840;8.276;2023-03-13T06:05:45;10.90;99.90
9949;DHT22;5013;51.840;8.276;2023-03-13T06:08:10;10.90;99.90
9949;DHT22;5013;51.840;8.276;2023-03-13T06:10:36;10.90;99.90
9949;DHT22;5013;51.840;8.276;2023-03-13T06:13:01;11.00;99.90
9949;DHT22;5013;51.840;8.276;2023-03-13T06:15:27;11.10;99.90
9949;DHT22;5013;51.840;8.276;2023-03-13T06:17:53;11.10;99.90
9949;DHT22;5013;51.840;8.276;2023-03-13T06:20:18;11.00;99.90
9949;DHT22;5013;51.840;8.276;2023-03-13T06:22:44;11.00;99.90
9949;DHT22;5013;51.840;8.276;2023-03-13T06:25:10;11.10;99.90
9949;DHT22;5013;51.840;8.276;2023-03-13T06:27:35;11.10;99.90
9949;DHT22;5013;51.840;8.276;2023-03-13T06:30:01;11.10;99.90
9949;DHT22;5013;51.840;8.276;2023-03-13T06:32:27;11.10;99.90
9949;DHT22;5013;51.840;8.276;2023-03-13T06:34:53;11.10;99.90
9949;DHT22;5013;51.840;8.276;2023-03-13T06:37:18;11.10;99.90
9949;DHT22;5013;51.840;8.276;2023-03-13T06:39:44;11.20;99.90
9949;DHT22;5013;51.840;8.276;2023-03-13T06:42:10;11.20;99.90
9949;DHT22;5013;51.840;8.276;2023-03-13T06:44:35;11.20;99.90
9949;DHT22;5013;51.840;8.276;2023-03-13T06:47:01;11.20;99.90
9949;DHT22;5013;51.840;8.276;2023-03-13T06:49:26;11.30;99.90
9949;DHT22;5013;51.840;8.276;2023-03-13T06:51:52;11.30;99.90
9949;DHT22;5013;51.840;8.276;2023-03-13T06:54:18;11.30;99.90
9949;DHT22;5013;51.840;8.276;2023-03-13T06:56:43;11.30;99.90
9949;DHT22;5013;51.840;8.276;2023-03-13T06:59:09;11.30;99.90
9949;DHT22;5013;51.840;8.276;2023-03-13T07:01:34;11.30;99.90
9949;DHT22;5013;51.840;8.276;2023-03-13T07:04:00;11.30;99.90
9949;DHT22;5013;51.840;8.276;2023-03-13T07:06:25;11.30;99.90
9949;DHT22;5013;51.840;8.276;2023-03-13T07:08:51;11.30;99.90
9949;DHT22;5013;51.840;8.276;2023-03-13T07:11:17;11.30;99.90
9949;DHT22;5013;51.840;8.276;2023-03-13T07:13:43;11.30;99.90
9949;DHT22;5013;51.840;8.276;2023-03-13T07:16:11;11.40;99.90
9949;DHT22;5013;51.840;8.276;2023-03-13T07:18:37;11.30;99.90
9949;DHT22;5013;51.840;8.276;2023-03-13T07:21:04;11.30;99.90
9949;DHT22;5013;51.840;8.276;2023-03-13T07:23:30;11.40;99.90
9949;DHT22;5013;51.840;8.276;2023-03-13T07:26:01;11.50;99.90
9949;DHT22;5013;51.840;8.276;2023-03-13T07:28:28;11.50;99.90
9949;DHT22;5013;51.840;8.276;2023-03-13T07:33:33;11.60;99.90
9949;DHT22;5013;51.840;8.276;2023-03-13T07:35:59;11.60;99.90
9949;DHT22;5013;51.840;8.276;2023-03-13T07:38:25;11.70;99.90
9949;DHT22;5013;51.840;8.276;2023-03-13T07:40:52;11.80;99.90
9949;DHT22;5013;51.840;8.276;2023-03-13T07:43:19;11.80;99.20
9949;DHT22;5013;51.840;8.276;2023-03-13T07:45:51;12.00;49.40
9949;DHT22;5013;51.840;8.276;2023-03-13T07:48:17;12.00;16.30
9949;DHT22;5013;51.840;8.276;2023-03-13T07:50:43;12.00;1.00
9949;DHT22;5013;51.840;8.276;2023-03-13T07:53:09;12.00;1.00
9949;DHT22;5013;51.840;8.276;2023-03-13T07:55:35;12.00;1.00
9949;DHT22;5013;51.840;8.276;2023-03-13T07:58:00;12.10;1.00
9949;DHT22;5013;51.840;8.276;2023-03-13T08:00:26;12.10;1.00
9949;DHT22;5013;51.840;8.276;2023-03-13T08:02:51;12.20;1.00
9949;DHT22;5013;51.840;8.276;2023-03-13T08:05:17;12.20;1.00
9949;DHT22;5013;51.840;8.276;2023-03-13T08:07:45;12.30;1.00
9949;DHT22;5013;51.840;8.276;2023-03-13T08:10:11;12.30;1.00
9949;DHT22;5013;51.840;8.276;2023-03-13T08:12:36;12.30;1.00
9949;DHT22;5013;51.840;8.276;2023-03-13T08:15:02;12.30;1.00
9949;DHT22;5013;51.840;8.276;2023-03-13T08:17:29;12.40;1.00
9949;DHT22;5013;51.840;8.276;2023-03-13T08:19:54;12.40;1.00
9949;DHT22;5013;51.840;8.276;2023-03-13T08:22:20;12.40;1.00
9949;DHT22;5013;51.840;8.276;2023-03-13T08:24:46;12.50;1.00
9949;DHT22;5013;51.840;8.276;2023-03-13T08:27:12;12.60;1.00
9949;DHT22;5013;51.840;8.276;2023-03-13T08:29:37;12.70;1.00
9949;DHT22;5013;51.840;8.276;2023-03-13T08:32:03;12.80;99.90
9949;DHT22;5013;51.840;8.276;2023-03-13T08:34:29;12.90;99.90
9949;DHT22;5013;51.840;8.276;2023-03-13T08:36:55;12.90;99.90
9949;DHT22;5013;51.840;8.276;2023-03-13T08:39:21;12.90;99.90
9949;DHT22;5013;51.840;8.276;2023-03-13T08:41:47;12.90;99.90
9949;DHT22;5013;51.840;8.276;2023-03-13T08:44:15;13.00;99.90
9949;DHT22;5013;51.840;8.276;2023-03-13T08:46:41;13.10;99.90
9949;DHT22;5013;51.840;8.276;2023-03-13T08:49:08;13.20;53.40
9949;DHT22;5013;51.840;8.276;2023-03-13T08:51:34;13.20;1.00
9949;DHT22;5013;51.840;8.276;2023-03-13T08:54:00;13.30;1.00
9949;DHT22;5013;51.840;8.276;2023-03-13T08:56:27;13.20;1.00
9949;DHT22;5013;51.840;8.276;2023-03-13T08:58:59;13.20;1.00
9949;DHT22;5013;51.840;8.276;2023-03-13T09:01:28;13.20;1.00
9949;DHT22;5013;51.840;8.276;2023-03-13T09:03:54;13.40;1.00
9949;DHT22;5013;51.840;8.276;2023-03-13T09:06:20;13.40;1.00
9949;DHT22;5013;51.840;8.276;2023-03-13T09:08:46;13.50;99.90
9949;DHT22;5013;51.840;8.276;2023-03-13T09:11:15;13.50;99.90
9949;DHT22;5013;51.840;8.276;2023-03-13T09:13:44;13.50;99.90
9949;DHT22;5013;51.840;8.276;2023-03-13T09:16:12;13.50;99.90
9949;DHT22;5013;51.840;8.276;2023-03-13T09:18:38;13.60;1.00
9949;DHT22;5013;51.840;8.276;2023-03-13T09:21:07;13.60;1.00
9949;DHT22;5013;51.840;8.276;2023-03-13T09:23:33;13.60;1.00
9949;DHT22;5013;51.840;8.276;2023-03-13T09:25:59;13.70;1.00
9949;DHT22;5013;51.840;8.276;2023-03-13T09:28:25;13.60;1.00
9949;DHT22;5013;51.840;8.276;2023-03-13T09:30:52;13.60;1.00
9949;DHT22;5013;51.840;8.276;2023-03-13T09:33:19;13.70;1.00
9949;DHT22;5013;51.840;8.276;2023-03-13T09:35:45;13.70;1.00
9949;DHT22;5013;51.840;8.276;2023-03-13T09:38:16;13.70;1.00
9949;DHT22;5013;51.840;8.276;2023-03-13T09:40:47;13.60;1.00
9949;DHT22;5013;51.840;8.276;2023-03-13T09:43:39;13.70;1.00
9949;DHT22;5013;51.840;8.276;2023-03-13T09:46:10;13.80;1.00
9949;DHT22;5013;51.840;8.276;2023-03-13T09:49:07;13.70;38.00
9949;DHT22;5013;51.840;8.276;2023-03-13T09:51:37;13.80;24.00
9949;DHT22;5013;51.840;8.276;2023-03-13T09:59:28;14.40;1.00
9949;DHT22;5013;51.840;8.276;2023-03-13T10:01:57;14.70;1.00
9949;DHT22;5013;51.840;8.276;2023-03-13T10:04:27;14.80;99.90
9949;DHT22;5013;51.840;8.276;2023-03-13T10:06:54;14.90;99.90
9949;DHT22;5013;51.840;8.276;2023-03-13T10:09:31;15.00;1.00
9949;DHT22;5013;51.840;8.276;2023-03-13T10:19:50;15.10;99.90
9949;DHT22;5013;51.840;8.276;2023-03-13T10:22:23;15.10;1.00
9949;DHT22;5013;51.840;8.276;2023-03-13T10:25:10;15.10;1.00
9949;DHT22;5013;51.840;8.276;2023-03-13T10:27:44;15.30;99.90
9949;DHT22;5013;51.840;8.276;2023-03-13T10:30:25;15.30;1.00
9949;DHT22;5013;51.840;8.276;2023-03-13T10:32:55;15.40;99.90
9949;DHT22;5013;51.840;8.276;2023-03-13T10:35:35;15.60;99.90
9949;DHT22;5013;51.840;8.276;2023-03-13T10:38:09;15.60;15.50
9949;DHT22;5013;51.840;8.276;2023-03-13T10:40:36;15.40;99.90
9949;DHT22;5013;51.840;8.276;2023-03-13T10:43:05;15.50;1.00
9949;DHT22;5013;51.840;8.276;2023-03-13T10:45:33;15.50;1.00
9949;DHT22;5013;51.840;8.276;2023-03-13T10:48:02;15.50;1.00
9949;DHT22;5013;51.840;8.276;2023-03-13T10:50:32;15.60;99.90
9949;DHT22;5013;51.840;8.276;2023-03-13T10:53:51;15.50;99.90
9949;DHT22;5013;51.840;8.276;2023-03-13T10:55:54;15.60;1.00
9949;DHT22;5013;51.840;8.276;2023-03-13T10:58:32;15.90;99.90
9949;DHT22;5013;51.840;8.276;2023-03-13T11:01:26;16.00;47.00
9949;DHT22;5013;51.840;8.276;2023-03-13T11:03:55;15.90;1.00
9949;DHT22;5013;51.840;8.276;2023-03-13T11:06:29;15.70;99.90
9949;DHT22;5013;51.840;8.276;2023-03-13T11:09:21;15.90;99.90
9949;DHT22;5013;51.840;8.276;2023-03-13T11:11:54;16.00;1.00
9949;DHT22;5013;51.840;8.276;2023-03-13T11:14:22;15.90;1.00
9949;DHT22;5013;51.840;8.276;2023-03-13T11:16:50;15.90;99.90
9949;DHT22;5013;51.840;8.276;2023-03-13T11:19:25;16.10;1.00
9949;DHT22;5013;51.840;8.276;2023-03-13T11:21:59;16.20;1.00
9949;DHT22;5013;51.840;8.276;2023-03-13T11:32:45;16.90;99.90
9949;DHT22;5013;51.840;8.276;2023-03-13T11:37:50;16.80;99.90
9949;DHT22;5013;51.840;8.276;2023-03-13T11:43:21;16.80;99.90
9949;DHT22;5013;51.840;8.276;2023-03-13T11:48:50;16.70;99.90
9949;DHT22;5013;51.840;8.276;2023-03-13T11:54:04;16.70;1.00
9949;DHT22;5013;51.840;8.276;2023-03-13T11:56:48;16.70;1.00
9949;DHT22;5013;51.840;8.276;2023-03-13T11:59:34;17.10;1.00
9949;DHT22;5013;51.840;8.276;2023-03-13T12:02:24;17.40;1.00
9949;DHT22;5013;51.840;8.276;2023-03-13T12:04:58;17.50;99.90
9949;DHT22;5013;51.840;8.276;2023-03-13T12:10:40;17.90;99.90
9949;DHT22;5013;51.840;8.276;2023-03-13T12:15:46;18.10;24.70
9949;DHT22;5013;51.840;8.276;2023-03-13T12:34:29;17.80;1.00
9949;DHT22;5013;51.840;8.276;2023-03-13T12:45:05;18.00;1.00
9949;DHT22;5013;51.840;8.276;2023-03-13T12:47:38;18.00;1.00
9949;DHT22;5013;51.840;8.276;2023-03-13T12:55:28;17.60;1.00
9949;DHT22;5013;51.840;8.276;2023-03-13T13:00:40;17.70;1.00
9949;DHT22;5013;51.840;8.276;2023-03-13T13:06:10;17.80;1.00
9949;DHT22;5013;51.840;8.276;2023-03-13T13:14:34;17.30;8.00
9949;DHT22;5013;51.840;8.276;2023-03-13T13:32:54;17.70;1.00
9949;DHT22;5013;51.840;8.276;2023-03-13T13:35:30;17.90;1.00
9949;DHT22;5013;51.840;8.276;2023-03-13T13:43:46;18.10;1.00
9949;DHT22;5013;51.840;8.276;2023-03-13T13:48:40;18.00;1.00
9949;DHT22;5013;51.840;8.276;2023-03-13T13:54:03;17.80;1.00
9949;DHT22;5013;51.840;8.276;2023-03-13T14:01:39;17.90;1.00
9949;DHT22;5013;51.840;8.276;2023-03-13T14:06:51;17.90;1.00
9949;DHT22;5013;51.840;8.276;2023-03-13T14:12:34;18.20;1.00
9949;DHT22;5013;51.840;8.276;2023-03-13T14:17:52;18.00;1.00
9949;DHT22;5013;51.840;8.276;2023-03-13T14:22:48;17.70;1.00
9949;DHT22;5013;51.840;8.276;2023-03-13T14:25:14;17.50;1.00
9949;DHT22;5013;51.840;8.276;2023-03-13T14:27:44;17.40;1.00
9949;DHT22;5013;51.840;8.276;2023-03-13T14:30:12;17.40;1.00
9949;DHT22;5013;51.840;8.276;2023-03-13T14:32:38;17.30;1.00
9949;DHT22;5013;51.840;8.276;2023-03-13T14:35:05;17.30;1.00
9949;DHT22;5013;51.840;8.276;2023-03-13T14:37:41;17.30;1.00
9949;DHT22;5013;51.840;8.276;2023-03-13T14:40:26;17.30;1.00
9949;DHT22;5013;51.840;8.276;2023-03-13T14:42:57;17.30;1.00
9949;DHT22;5013;51.840;8.276;2023-03-13T14:47:52;17.30;1.00
9949;DHT22;5013;51.840;8.276;2023-03-13T14:50:21;17.20;1.00
9949;DHT22;5013;51.840;8.276;2023-03-13T14:53:12;17.20;1.00
9949;DHT22;5013;51.840;8.276;2023-03-13T14:55:40;17.30;1.00
9949;DHT22;5013;51.840;8.276;2023-03-13T14:58:30;17.30;1.00
9949;DHT22;5013;51.840;8.276;2023-03-13T15:00:56;17.30;1.00
9949;DHT22;5013;51.840;8.276;2023-03-13T15:03:28;17.20;1.00
9949;DHT22;5013;51.840;8.276;2023-03-13T15:06:04;17.40;1.00
9949;DHT22;5013;51.840;8.276;2023-03-13T15:08:36;17.40;1.00
9949;DHT22;5013;51.840;8.276;2023-03-13T15:11:24;17.40;1.00
9949;DHT22;5013;51.840;8.276;2023-03-13T15:13:51;17.40;1.00
9949;DHT22;5013;51.840;8.276;2023-03-13T15:16:18;17.30;1.00
9949;DHT22;5013;51.840;8.276;2023-03-13T15:18:45;17.30;1.00
9949;DHT22;5013;51.840;8.276;2023-03-13T15:23:49;17.30;1.00
9949;DHT22;5013;51.840;8.276;2023-03-13T15:26:14;17.20;1.00
9949;DHT22;5013;51.840;8.276;2023-03-13T15:28:40;17.20;1.00
9949;DHT22;5013;51.840;8.276;2023-03-13T15:31:06;17.00;95.20
9949;DHT22;5013;51.840;8.276;2023-03-13T15:33:31;17.00;99.90
9949;DHT22;5013;51.840;8.276;2023-03-13T15:35:58;16.90;99.90
9949;DHT22;5013;51.840;8.276;2023-03-13T15:38:26;16.90;99.90
9949;DHT22;5013;51.840;8.276;2023-03-13T15:40:51;16.80;99.90
9949;DHT22;5013;51.840;8.276;2023-03-13T15:43:18;16.80;99.90
9949;DHT22;5013;51.840;8.276;2023-03-13T15:45:45;16.70;99.90
9949;DHT22;5013;51.840;8.276;2023-03-13T15:48:23;16.70;99.90
9949;DHT22;5013;51.840;8.276;2023-03-13T15:51:00;16.70;99.90
9949;DHT22;5013;51.840;8.276;2023-03-13T15:53:30;16.70;99.90
9949;DHT22;5013;51.840;8.276;2023-03-13T15:56:00;16.60;99.90
9949;DHT22;5013;51.840;8.276;2023-03-13T15:58:27;16.60;99.90
9949;DHT22;5013;51.840;8.276;2023-03-13T16:00:54;16.50;1.00
9949;DHT22;5013;51.840;8.276;2023-03-13T16:03:23;16.50;1.00
9949;DHT22;5013;51.840;8.276;2023-03-13T16:05:50;16.40;1.00
9949;DHT22;5013;51.840;8.276;2023-03-13T16:08:21;16.40;1.00
9949;DHT22;5013;51.840;8.276;2023-03-13T16:10:47;16.40;1.00
9949;DHT22;5013;51.840;8.276;2023-03-13T16:13:13;16.30;1.00
9949;DHT22;5013;51.840;8.276;2023-03-13T16:15:39;16.30;1.00
9949;DHT22;5013;51.840;8.276;2023-03-13T16:18:05;16.30;1.00
9949;DHT22;5013;51.840;8.276;2023-03-13T16:20:32;16.30;99.90
9949;DHT22;5013;51.840;8.276;2023-03-13T16:22:58;16.30;99.90
9949;DHT22;5013;51.840;8.276;2023-03-13T16:25:29;16.30;93.10
9949;DHT22;5013;51.840;8.276;2023-03-13T16:27:54;16.30;1.00
9949;DHT22;5013;51.840;8.276;2023-03-13T16:30:24;16.30;1.00
9949;DHT22;5013;51.840;8.276;2023-03-13T16:32:50;16.40;1.00
9949;DHT22;5013;51.840;8.276;2023-03-13T16:35:16;16.70;1.00
9949;DHT22;5013;51.840;8.276;2023-03-13T16:37:42;16.80;99.90
9949;DHT22;5013;51.840;8.276;2023-03-13T16:40:13;17.00;99.90
9949;DHT22;5013;51.840;8.276;2023-03-13T16:42:40;17.10;99.90
9949;DHT22;5013;51.840;8.276;2023-03-13T16:45:06;17.30;99.90
9949;DHT22;5013;51.840;8.276;2023-03-13T16:47:32;17.40;1.00
9949;DHT22;5013;51.840;8.276;2023-03-13T16:49:59;17.30;99.90
9949;DHT22;5013;51.840;8.276;2023-03-13T16:52:25;17.10;99.90
9949;DHT22;5013;51.840;8.276;2023-03-13T16:54:51;16.70;99.90
9949;DHT22;5013;51.840;8.276;2023-03-13T16:57:23;16.40;99.90
9949;DHT22;5013;51.840;8.276;2023-03-13T16:59:50;16.20;99.90
9949;DHT22;5013;51.840;8.276;2023-03-13T17:02:17;15.90;99.90
9949;DHT22;5013;51.840;8.276;2023-03-13T17:04:44;15.70;99.90
9949;DHT22;5013;51.840;8.276;2023-03-13T17:07:18;15.60;99.90
9949;DHT22;5013;51.840;8.276;2023-03-13T17:09:44;15.50;1.00
9949;DHT22;5013;51.840;8.276;2023-03-13T17:12:10;15.40;1.00
9949;DHT22;5013;51.840;8.276;2023-03-13T17:14:36;15.30;1.00
9949;DHT22;5013;51.840;8.276;2023-03-13T17:17:02;15.20;1.00
9949;DHT22;5013;51.840;8.276;2023-03-13T17:19:27;15.10;1.00
9949;DHT22;5013;51.840;8.276;2023-03-13T17:21:53;15.00;1.00
9949;DHT22;5013;51.840;8.276;2023-03-13T17:24:18;14.90;1.00
9949;DHT22;5013;51.840;8.276;2023-03-13T17:26:44;14.80;1.00
9949;DHT22;5013;51.840;8.276;2023-03-13T17:29:15;14.80;69.90
9949;DHT22;5013;51.840;8.276;2023-03-13T17:31:40;14.70;16.30
9949;DHT22;5013;51.840;8.276;2023-03-13T17:34:07;14.70;50.00
9949;DHT22;5013;51.840;8.276;2023-03-13T17:36:33;14.70;1.00
9949;DHT22;5013;51.840;8.276;2023-03-13T17:39:01;14.70;1.00
9949;DHT22;5013;51.840;8.276;2023-03-13T17:41:28;14.60;1.00
9949;DHT22;5013;51.840;8.276;2023-03-13T17:43:55;14.50;1.00
9949;DHT22;5013;51.840;8.276;2023-03-13T17:46:32;14.50;1.00
9949;DHT22;5013;51.840;8.276;2023-03-13T17:49:00;14.40;1.00
9949;DHT22;5013;51.840;8.276;2023-03-13T17:51:28;14.40;4.90
9949;DHT22;5013;51.840;8.276;2023-03-13T17:53:55;14.30;99.90
9949;DHT22;5013;51.840;8.276;2023-03-13T17:56:34;14.30;99.90
9949;DHT22;5013;51.840;8.276;2023-03-13T17:59:04;14.30;99.90
9949;DHT22;5013;51.840;8.276;2023-03-13T18:01:31;14.20;99.90
9949;DHT22;5013;51.840;8.276;2023-03-13T18:03:58;14.10;99.90
9949;DHT22;5013;51.840;8.276;2023-03-13T18:06:36;14.10;99.90
9949;DHT22;5013;51.840;8.276;2023-03-13T18:09:04;14.10;99.90
9949;DHT22;5013;51.840;8.276;2023-03-13T18:11:34;14.00;1.00
9949;DHT22;5013;51.840;8.276;2023-03-13T18:14:00;13.90;1.00
9949;DHT22;5013;51.840;8.276;2023-03-13T18:16:36;13.90;1.00
9949;DHT22;5013;51.840;8.276;2023-03-13T18:19:18;13.90;1.00
9949;DHT22;5013;51.840;8.276;2023-03-13T18:21:45;13.90;1.00
9949;DHT22;5013;51.840;8.276;2023-03-13T18:24:11;13.90;1.00
9949;DHT22;5013;51.840;8.276;2023-03-13T18:26:39;13.90;1.00
9949;DHT22;5013;51.840;8.276;2023-03-13T18:29:19;13.80;14.90
9949;DHT22;5013;51.840;8.276;2023-03-13T18:31:51;13.90;1.00
9949;DHT22;5013;51.840;8.276;2023-03-13T18:34:19;13.80;18.50
9949;DHT22;5013;51.840;8.276;2023-03-13T18:36:44;13.80;1.00
9949;DHT22;5013;51.840;8.276;2023-03-13T18:39:13;13.80;1.00
9949;DHT22;5013;51.840;8.276;2023-03-13T18:41:42;13.80;1.00